Time;durP1;ratioP1;P1;durP2;ratioP2;P2;SDS_P1;SDS_P2;PMS_P1;PMS_P2;Temp;Humidity;BMP_temperature;BMP_pressure;BME280_temperature;BME280_humidity;BME280_pressure;Samples;Min_cycle;Max_cycle;Signal;HPM_P1;HPM_P2
2021/03/20 00:00:49;;;;;;;14.67;5.00;;;3.30;99.90;;;;;;4979234;28;20622;-66
2021/03/20 00:03:16;;;;;;;9.97;5.57;;;3.30;99.90;;;;;;4982246;28;20197;-66
2021/03/20 00:05:43;;;;;;;13.63;7.00;;;3.30;99.90;;;;;;4988024;28;20197;-66
2021/03/20 00:08:13;;;;;;;11.90;7.13;;;3.30;99.90;;;;;;4992535;28;20213;-66
2021/03/20 00:10:40;;;;;;;15.47;7.80;;;3.30;99.90;;;;;;4990960;28;20264;-67
2021/03/20 00:13:07;;;;;;;13.63;7.47;;;3.30;99.90;;;;;;4993763;28;20256;-66
2021/03/20 00:15:34;;;;;;;12.20;7.93;;;3.20;99.90;;;;;;4980197;28;20214;-66
2021/03/20 00:18:01;;;;;;;16.53;8.73;;;3.10;99.90;;;;;;4983040;28;20201;-67
2021/03/20 00:20:29;;;;;;;19.03;9.97;;;3.00;99.90;;;;;;4989991;28;20201;-67
2021/03/20 00:22:57;;;;;;;18.57;8.80;;;3.00;99.90;;;;;;5001092;28;20201;-66
2021/03/20 00:25:25;;;;;;;18.60;10.43;;;2.90;99.90;;;;;;4994048;28;20198;-66
2021/03/20 00:27:52;;;;;;;21.67;11.57;;;2.90;99.90;;;;;;4980904;28;20205;-65
2021/03/20 00:30:20;;;;;;;18.43;11.77;;;2.90;99.90;;;;;;4988482;28;20300;-66
2021/03/20 00:32:47;;;;;;;21.33;12.73;;;2.90;99.90;;;;;;4990901;28;20260;-66
2021/03/20 00:35:15;;;;;;;18.37;11.77;;;2.90;99.90;;;;;;4987243;28;21067;-66
2021/03/20 00:37:41;;;;;;;18.90;14.23;;;2.80;99.90;;;;;;4994168;28;20198;-66
2021/03/20 00:40:11;;;;;;;21.53;14.53;;;2.80;99.90;;;;;;4983964;28;20207;-66
2021/03/20 00:42:38;;;;;;;20.43;15.23;;;2.70;99.90;;;;;;4978372;28;20260;-65
2021/03/20 00:45:07;;;;;;;22.23;14.83;;;2.60;99.90;;;;;;4975824;28;20658;-65
2021/03/20 00:47:33;;;;;;;19.93;15.00;;;2.60;99.90;;;;;;4981104;28;20209;-66
2021/03/20 00:50:00;;;;;;;21.67;15.70;;;2.50;99.90;;;;;;4975036;28;20236;-65
2021/03/20 00:52:27;;;;;;;21.20;15.60;;;2.40;99.90;;;;;;4975013;28;20198;-66
2021/03/20 00:54:54;;;;;;;22.17;16.13;;;2.40;99.90;;;;;;4993408;28;20202;-66
2021/03/20 00:57:20;;;;;;;24.67;17.80;;;2.20;99.90;;;;;;4991682;28;21150;-66
2021/03/20 00:59:48;;;;;;;24.40;16.00;;;2.10;99.90;;;;;;4992786;28;20194;-65
2021/03/20 01:02:14;;;;;;;24.20;17.67;;;2.00;99.90;;;;;;4974693;28;20236;-66
2021/03/20 01:04:41;;;;;;;24.47;17.77;;;1.90;99.90;;;;;;4992144;28;20213;-65
2021/03/20 01:07:08;;;;;;;24.80;17.60;;;1.80;99.90;;;;;;4980515;28;20210;-64
2021/03/20 01:09:34;;;;;;;23.07;17.43;;;1.70;99.90;;;;;;4989217;28;20596;-65
2021/03/20 01:12:01;;;;;;;25.00;18.00;;;1.70;99.90;;;;;;4990734;28;20202;-64
2021/03/20 01:14:27;;;;;;;23.07;17.30;;;1.70;99.90;;;;;;4991230;28;20204;-64
2021/03/20 01:16:55;;;;;;;27.93;18.33;;;1.70;99.90;;;;;;4982086;28;20206;-64
2021/03/20 01:19:21;;;;;;;23.43;17.07;;;1.60;99.90;;;;;;4977859;28;20238;-66
2021/03/20 01:21:48;;;;;;;21.47;16.40;;;1.70;99.90;;;;;;4972085;28;20212;-67
2021/03/20 01:24:14;;;;;;;22.07;15.90;;;1.60;99.90;;;;;;4973166;28;20244;-64
2021/03/20 01:26:41;;;;;;;21.87;15.17;;;1.70;99.90;;;;;;4975746;28;20206;-66
2021/03/20 01:29:08;;;;;;;21.50;16.27;;;1.70;99.90;;;;;;4973768;28;20260;-67
2021/03/20 01:31:34;;;;;;;23.33;15.53;;;1.60;99.90;;;;;;4980122;28;20627;-65
2021/03/20 01:34:01;;;;;;;17.90;14.33;;;1.60;99.90;;;;;;4970378;28;20206;-66
2021/03/20 01:36:28;;;;;;;22.73;15.17;;;1.50;99.90;;;;;;4988171;28;20198;-64
2021/03/20 01:38:55;;;;;;;23.13;15.03;;;1.50;99.90;;;;;;4979349;28;20210;-64
2021/03/20 01:41:24;;;;;;;21.50;15.53;;;1.40;99.90;;;;;;4997551;28;20202;-65
2021/03/20 01:43:51;;;;;;;18.63;14.20;;;1.40;99.90;;;;;;4990294;28;20202;-64
2021/03/20 01:46:42;;;;;;;19.27;14.93;;;1.30;99.90;;;;;;4980557;28;20201;-66
2021/03/20 01:49:21;;;;;;;18.00;13.67;;;1.20;99.90;;;;;;4980355;28;20213;-67
2021/03/20 01:51:55;;;;;;;22.93;14.73;;;1.10;99.90;;;;;;4987238;28;20680;-67
2021/03/20 01:54:23;;;;;;;24.07;15.43;;;1.00;99.90;;;;;;4973259;28;20201;-64
2021/03/20 01:56:51;;;;;;;22.20;15.10;;;0.90;99.90;;;;;;4987387;28;20208;-65
2021/03/20 01:59:18;;;;;;;21.53;15.30;;;0.90;99.90;;;;;;4992849;28;20205;-65
2021/03/20 02:01:45;;;;;;;22.63;14.67;;;0.80;99.90;;;;;;4985282;28;20702;-65
2021/03/20 02:04:11;;;;;;;22.60;15.27;;;0.90;99.90;;;;;;4977316;28;20647;-64
2021/03/20 02:06:39;;;;;;;20.90;15.27;;;0.90;99.90;;;;;;4982687;28;20198;-65
2021/03/20 02:09:08;;;;;;;23.53;15.60;;;0.80;99.90;;;;;;4987973;28;20222;-65
2021/03/20 02:11:41;;;;;;;22.07;15.00;;;0.70;99.90;;;;;;4988449;28;20210;-65
2021/03/20 02:14:15;;;;;;;20.07;14.63;;;0.60;99.90;;;;;;4994495;28;20205;-65
2021/03/20 02:16:48;;;;;;;21.33;14.87;;;0.50;99.90;;;;;;4998893;28;20255;-65
2021/03/20 02:19:24;;;;;;;24.27;16.27;;;0.50;99.90;;;;;;4989043;28;20226;-64
2021/03/20 02:21:57;;;;;;;25.20;15.57;;;0.50;99.90;;;;;;4997446;28;20609;-64
2021/03/20 02:24:57;;;;;;;23.73;16.03;;;0.40;99.90;;;;;;4985380;28;20200;-64
2021/03/20 02:27:48;;;;;;;26.57;16.70;;;0.40;99.90;;;;;;4995430;28;20289;-64
2021/03/20 02:30:43;;;;;;;28.53;17.63;;;0.40;99.90;;;;;;4972756;28;20635;-67
2021/03/20 02:33:33;;;;;;;26.17;17.20;;;0.40;99.90;;;;;;4989840;28;20194;-66
2021/03/20 02:36:09;;;;;;;25.33;17.23;;;0.40;99.90;;;;;;4992311;28;20686;-66
2021/03/20 02:38:42;;;;;;;23.73;17.20;;;0.40;99.90;;;;;;4990880;28;20221;-67
2021/03/20 02:41:18;;;;;;;24.03;15.10;;;0.30;99.90;;;;;;4979861;28;20201;-66
2021/03/20 02:43:55;;;;;;;23.73;16.90;;;0.30;99.90;;;;;;4990889;28;20200;-66
2021/03/20 02:46:26;;;;;;;22.73;16.90;;;0.30;99.90;;;;;;4976698;28;20194;-66
2021/03/20 02:49:00;;;;;;;28.13;17.50;;;0.30;99.90;;;;;;4983556;28;20614;-66
2021/03/20 02:51:31;;;;;;;23.77;15.93;;;0.30;99.90;;;;;;4976276;28;20194;-66
2021/03/20 02:54:02;;;;;;;25.40;16.60;;;0.30;99.90;;;;;;4982204;28;20555;-65
2021/03/20 02:56:34;;;;;;;27.83;18.60;;;0.30;99.90;;;;;;4993926;28;20653;-66
2021/03/20 02:59:09;;;;;;;29.73;19.30;;;0.30;99.90;;;;;;4992599;28;20211;-65
2021/03/20 03:01:38;;;;;;;27.07;17.53;;;0.30;99.90;;;;;;4989413;28;20654;-65
2021/03/20 03:04:08;;;;;;;29.47;17.67;;;0.30;99.90;;;;;;4984912;28;20203;-67
2021/03/20 03:06:40;;;;;;;27.30;18.83;;;0.30;99.90;;;;;;4979961;28;20209;-66
2021/03/20 03:09:11;;;;;;;31.50;20.43;;;0.30;99.90;;;;;;4979258;28;20217;-65
2021/03/20 03:11:43;;;;;;;32.73;20.60;;;0.30;99.90;;;;;;4985619;28;20270;-65
2021/03/20 03:14:15;;;;;;;33.13;19.70;;;0.30;99.90;;;;;;4980232;28;20554;-67
2021/03/20 03:16:46;;;;;;;33.23;20.93;;;0.30;99.90;;;;;;4985151;28;20571;-66
2021/03/20 03:19:20;;;;;;;34.53;20.23;;;0.20;99.90;;;;;;4987072;28;20233;-67
2021/03/20 03:21:51;;;;;;;35.83;21.83;;;0.20;99.90;;;;;;4979634;28;20197;-66
2021/03/20 03:24:21;;;;;;;32.13;21.57;;;0.10;99.90;;;;;;4990817;28;20588;-66
2021/03/20 03:26:53;;;;;;;36.27;21.73;;;0.10;99.90;;;;;;4984102;28;20253;-68
2021/03/20 03:29:24;;;;;;;37.33;22.33;;;0.00;99.90;;;;;;4990389;28;20229;-66
2021/03/20 03:31:59;;;;;;;37.17;22.30;;;0.10;99.90;;;;;;4989700;28;20198;-66
2021/03/20 03:34:33;;;;;;;33.53;21.50;;;0.00;99.90;;;;;;4982444;28;20656;-65
2021/03/20 03:37:08;;;;;;;35.07;21.63;;;0.00;99.90;;;;;;4988022;28;20209;-66
2021/03/20 03:39:43;;;;;;;35.53;21.90;;;0.00;99.90;;;;;;4993118;28;20205;-66
2021/03/20 03:42:12;;;;;;;39.87;23.27;;;0.00;99.90;;;;;;4989593;28;20219;-67
2021/03/20 03:44:41;;;;;;;34.10;22.50;;;0.00;99.90;;;;;;4986416;28;20209;-66
2021/03/20 03:47:09;;;;;;;39.20;23.83;;;-0.10;99.90;;;;;;4996678;28;20205;-66
2021/03/20 03:49:36;;;;;;;35.83;22.83;;;0.00;99.90;;;;;;4982376;28;20241;-66
2021/03/20 03:52:04;;;;;;;42.40;24.87;;;0.00;99.90;;;;;;4985285;28;20284;-66
2021/03/20 03:54:31;;;;;;;39.97;24.77;;;0.00;99.90;;;;;;4992924;28;20670;-65
2021/03/20 03:57:27;;;;;;;40.07;24.87;;;0.00;99.90;;;;;;4991919;28;20206;-66
2021/03/20 04:00:04;;;;;;;44.77;24.93;;;0.00;99.90;;;;;;4965821;28;21089;-65
2021/03/20 04:02:48;;;;;;;43.13;24.77;;;0.00;99.90;;;;;;4982446;28;20292;-65
2021/03/20 04:05:23;;;;;;;43.60;25.77;;;0.00;99.90;;;;;;4975190;28;20297;-66
2021/03/20 04:08:01;;;;;;;46.57;26.67;;;-0.10;99.90;;;;;;4997863;28;20228;-66
2021/03/20 04:10:31;;;;;;;44.17;27.00;;;0.00;99.90;;;;;;4995342;28;20209;-66
2021/03/20 04:13:04;;;;;;;43.80;25.93;;;-0.10;99.90;;;;;;4990869;28;20202;-66
2021/03/20 04:15:50;;;;;;;42.27;26.13;;;0.00;99.90;;;;;;4996531;28;20200;-66
2021/03/20 04:18:25;;;;;;;43.80;26.23;;;0.00;99.90;;;;;;4984929;28;20194;-67
2021/03/20 04:20:59;;;;;;;51.27;26.20;;;-0.10;99.90;;;;;;4975829;28;20204;-67
2021/03/20 04:23:31;;;;;;;42.77;25.93;;;-0.10;99.90;;;;;;4979673;28;20192;-66
2021/03/20 04:26:04;;;;;;;42.87;27.30;;;-0.20;99.90;;;;;;4974349;28;20244;-66
2021/03/20 04:28:41;;;;;;;42.37;25.73;;;-0.20;99.90;;;;;;4985678;28;20650;-66
2021/03/20 04:31:12;;;;;;;42.33;27.03;;;-0.10;99.90;;;;;;4982641;28;20214;-66
2021/03/20 04:33:43;;;;;;;49.77;28.30;;;0.00;99.90;;;;;;4985944;28;20606;-66
2021/03/20 04:36:17;;;;;;;46.20;27.53;;;0.10;99.90;;;;;;4988480;28;20289;-66
2021/03/20 04:38:45;;;;;;;43.03;26.67;;;0.20;99.90;;;;;;4980514;28;20194;-67
2021/03/20 04:41:13;;;;;;;45.10;28.17;;;0.20;99.90;;;;;;4985691;28;20205;-66
2021/03/20 04:43:41;;;;;;;45.10;26.17;;;0.20;99.90;;;;;;4982856;28;20272;-67
2021/03/20 04:46:13;;;;;;;47.70;27.60;;;0.20;99.90;;;;;;4991760;28;20209;-67
2021/03/20 04:48:43;;;;;;;47.47;27.47;;;0.10;99.90;;;;;;4991127;28;20197;-67
2021/03/20 04:51:35;;;;;;;41.63;27.27;;;0.00;99.90;;;;;;4992380;28;20686;-67
2021/03/20 04:54:09;;;;;;;45.73;28.00;;;0.00;99.90;;;;;;4981387;28;20198;-68
2021/03/20 04:56:42;;;;;;;41.97;25.60;;;0.00;99.90;;;;;;4990180;28;20198;-68
2021/03/20 04:59:18;;;;;;;42.53;26.00;;;-0.10;99.90;;;;;;4974560;28;20614;-69
2021/03/20 05:01:48;;;;;;;44.30;26.97;;;-0.10;99.90;;;;;;4989108;28;20232;-68
2021/03/20 05:04:21;;;;;;;44.60;28.73;;;-0.20;99.90;;;;;;4972491;28;20283;-67
2021/03/20 05:06:49;;;;;;;44.90;27.83;;;-0.20;99.90;;;;;;4976366;28;20530;-66
2021/03/20 05:09:21;;;;;;;43.93;26.63;;;-0.30;99.90;;;;;;4971923;28;20233;-68
2021/03/20 05:11:55;;;;;;;44.23;27.33;;;-0.30;99.90;;;;;;4976340;28;20229;-67
2021/03/20 05:14:28;;;;;;;46.63;26.77;;;-0.40;99.90;;;;;;4976680;28;20206;-67
2021/03/20 05:16:56;;;;;;;44.40;27.07;;;-0.30;99.90;;;;;;4981286;28;20657;-66
2021/03/20 05:19:25;;;;;;;46.20;27.43;;;-0.40;99.90;;;;;;4979749;28;22674;-65
2021/03/20 05:21:54;;;;;;;50.20;27.73;;;-0.40;99.90;;;;;;4974019;28;20232;-67
2021/03/20 05:24:24;;;;;;;46.80;27.33;;;-0.40;99.90;;;;;;4989123;28;20209;-65
2021/03/20 05:26:51;;;;;;;44.43;25.97;;;-0.40;99.90;;;;;;4984674;28;20292;-67
2021/03/20 05:29:18;;;;;;;47.70;28.60;;;-0.40;99.90;;;;;;4985211;28;20254;-66
2021/03/20 05:31:45;;;;;;;48.13;28.90;;;-0.40;99.90;;;;;;4988728;28;20259;-68
2021/03/20 05:34:20;;;;;;;47.80;27.50;;;-0.40;99.90;;;;;;4984942;28;20244;-67
2021/03/20 05:36:47;;;;;;;45.50;27.00;;;-0.40;99.90;;;;;;4989875;28;21018;-68
2021/03/20 05:39:16;;;;;;;51.37;29.03;;;-0.40;99.90;;;;;;4988388;28;20201;-67
2021/03/20 05:42:00;;;;;;;48.73;28.70;;;-0.40;99.90;;;;;;4990527;28;20205;-68
2021/03/20 05:44:47;;;;;;;47.87;28.93;;;-0.40;99.90;;;;;;4990161;28;20202;-67
2021/03/20 05:47:25;;;;;;;50.07;29.07;;;-0.40;99.90;;;;;;4983816;28;20197;-68
2021/03/20 05:50:02;;;;;;;49.47;29.33;;;-0.40;99.90;;;;;;4973496;28;20218;-68
2021/03/20 05:52:50;;;;;;;51.57;29.83;;;-0.40;99.90;;;;;;4973298;28;20300;-68
2021/03/20 05:55:40;;;;;;;53.40;30.50;;;-0.40;99.90;;;;;;4987358;28;20263;-67
2021/03/20 05:58:21;;;;;;;51.40;28.97;;;-0.40;99.90;;;;;;4991341;28;20198;-69
2021/03/20 06:00:54;;;;;;;50.27;29.93;;;-0.40;99.90;;;;;;4985294;28;20540;-69
2021/03/20 06:03:37;;;;;;;49.00;28.90;;;-0.30;99.90;;;;;;4984216;28;20201;-68
2021/03/20 06:06:17;;;;;;;50.13;29.77;;;-0.30;99.90;;;;;;4976319;28;20253;-68
2021/03/20 06:09:01;;;;;;;48.90;29.93;;;-0.30;99.90;;;;;;4976570;28;20194;-69
2021/03/20 06:11:39;;;;;;;54.17;30.07;;;-0.20;99.90;;;;;;4989328;28;20201;-68
2021/03/20 06:14:27;;;;;;;50.07;30.00;;;-0.20;99.90;;;;;;4984903;28;20729;-66
2021/03/20 06:17:07;;;;;;;48.37;29.80;;;-0.20;99.90;;;;;;4988148;28;20202;-68
2021/03/20 06:19:56;;;;;;;48.17;30.33;;;-0.10;99.90;;;;;;4987853;28;20272;-67
2021/03/20 06:22:45;;;;;;;51.10;29.97;;;-0.10;99.90;;;;;;4986531;28;20253;-66
2021/03/20 06:25:31;;;;;;;48.30;29.50;;;-0.10;99.90;;;;;;4973096;28;20198;-67
2021/03/20 06:27:59;;;;;;;54.90;31.30;;;0.00;99.90;;;;;;4978969;28;20194;-67
2021/03/20 06:30:36;;;;;;;46.20;28.93;;;0.00;99.90;;;;;;4988425;28;20246;-66
2021/03/20 06:33:11;;;;;;;51.90;32.07;;;0.20;99.90;;;;;;4991496;28;20209;-67
2021/03/20 06:35:42;;;;;;;54.50;31.77;;;0.40;99.90;;;;;;4985051;28;20205;-66
2021/03/20 06:38:18;;;;;;;57.83;32.87;;;0.70;99.90;;;;;;5007690;28;20230;-68
2021/03/20 06:40:50;;;;;;;60.40;35.57;;;1.20;99.90;;;;;;4984623;28;20197;-69
2021/03/20 06:43:19;;;;;;;70.20;40.80;;;2.00;99.90;;;;;;4972900;28;20567;-68
2021/03/20 06:45:46;;;;;;;75.73;43.77;;;2.90;99.90;;;;;;4977165;28;20197;-69
2021/03/20 06:48:15;;;;;;;76.30;47.67;;;3.70;99.90;;;;;;4999976;28;20205;-67
2021/03/20 06:50:45;;;;;;;72.10;46.80;;;4.60;99.90;;;;;;4994566;28;20562;-68
2021/03/20 06:53:14;;;;;;;63.53;42.67;;;5.30;99.90;;;;;;4994982;28;20205;-68
2021/03/20 06:55:44;;;;;;;44.93;33.80;;;6.00;99.90;;;;;;4992496;28;20213;-67
2021/03/20 06:58:19;;;;;;;31.47;26.33;;;6.60;99.90;;;;;;4996007;28;20605;-66
2021/03/20 07:00:46;;;;;;;23.83;20.50;;;7.10;99.90;;;;;;4989586;28;20197;-67
2021/03/20 07:03:38;;;;;;;19.67;17.57;;;7.60;99.90;;;;;;4994828;28;20571;-65
2021/03/20 07:06:12;;;;;;;16.67;14.70;;;8.00;99.90;;;;;;4976803;28;20204;-66
2021/03/20 07:08:46;;;;;;;16.70;14.97;;;8.10;99.90;;;;;;4994046;28;20201;-67
2021/03/20 07:11:21;;;;;;;16.60;14.80;;;8.40;99.90;;;;;;5000674;28;20208;-66
2021/03/20 07:13:52;;;;;;;17.77;15.90;;;8.70;99.90;;;;;;4993812;28;20658;-66
2021/03/20 07:16:21;;;;;;;15.07;13.57;;;9.10;99.90;;;;;;4989330;28;20241;-65
2021/03/20 07:18:49;;;;;;;17.03;13.77;;;9.40;99.90;;;;;;4988327;28;20230;-67
2021/03/20 07:21:33;;;;;;;16.33;14.63;;;9.60;99.90;;;;;;4994110;28;20547;-66
2021/03/20 07:24:06;;;;;;;15.27;13.77;;;9.70;99.90;;;;;;4999802;28;20198;-67
2021/03/20 07:26:47;;;;;;;15.00;13.50;;;9.70;99.90;;;;;;4978412;28;20195;-67
2021/03/20 07:29:15;;;;;;;15.03;13.53;;;9.90;99.90;;;;;;4987712;28;20320;-68
2021/03/20 07:31:55;;;;;;;17.17;14.73;;;9.70;99.90;;;;;;4983132;28;20208;-68
2021/03/20 07:34:24;;;;;;;16.07;14.37;;;9.20;99.90;;;;;;4974854;28;20198;-68
2021/03/20 07:37:07;;;;;;;15.73;13.93;;;8.90;99.90;;;;;;4975043;28;20194;-67
2021/03/20 07:39:43;;;;;;;16.83;15.03;;;8.40;99.90;;;;;;4974157;28;20641;-68
2021/03/20 07:42:25;;;;;;;17.33;15.50;;;7.80;99.90;;;;;;4977197;28;20611;-68
2021/03/20 07:44:56;;;;;;;17.23;15.40;;;7.30;99.90;;;;;;4975967;28;20203;-67
2021/03/20 07:47:24;;;;;;;16.77;14.97;;;7.10;99.90;;;;;;4985987;28;20221;-66
2021/03/20 07:50:20;;;;;;;20.43;15.90;;;6.90;99.90;;;;;;4974232;28;20273;-68
2021/03/20 07:52:47;;;;;;;21.07;17.37;;;6.90;99.90;;;;;;4984206;28;20212;-68
2021/03/20 07:55:19;;;;;;;18.77;16.07;;;7.10;99.90;;;;;;4977467;28;20198;-67
2021/03/20 07:57:52;;;;;;;18.50;16.53;;;7.60;99.90;;;;;;4978542;28;20198;-66
2021/03/20 08:00:25;;;;;;;21.47;16.73;;;8.00;99.90;;;;;;4978924;28;20255;-66
2021/03/20 08:02:52;;;;;;;20.80;16.10;;;8.20;99.90;;;;;;4984536;28;20193;-65
2021/03/20 08:05:31;;;;;;;18.73;15.50;;;8.20;99.90;;;;;;4979107;28;20678;-65
2021/03/20 08:08:15;;;;;;;16.33;14.13;;;8.60;99.90;;;;;;4979948;28;20573;-66
2021/03/20 08:10:44;;;;;;;15.83;14.20;;;9.00;99.90;;;;;;4977976;28;20221;-66
2021/03/20 08:13:27;;;;;;;17.90;14.90;;;9.00;99.90;;;;;;4977703;28;20209;-65
2021/03/20 08:15:57;;;;;;;16.27;14.53;;;8.70;99.90;;;;;;4980334;28;20194;-67
2021/03/20 08:18:28;;;;;;;19.37;15.23;;;8.50;99.90;;;;;;4981152;28;20261;-66
2021/03/20 08:21:28;;;;;;;19.17;15.37;;;8.50;99.90;;;;;;4978386;28;20210;-66
2021/03/20 08:24:15;;;;;;;18.20;14.33;;;8.70;99.90;;;;;;4982581;28;20228;-67
2021/03/20 08:26:53;;;;;;;16.00;14.30;;;8.90;99.90;;;;;;4976941;28;20256;-69
2021/03/20 08:29:48;;;;;;;16.50;14.10;;;9.10;99.90;;;;;;4977527;28;20232;-67
2021/03/20 08:32:30;;;;;;;21.43;14.77;;;9.60;99.90;;;;;;4977222;28;20281;-65
2021/03/20 08:35:08;;;;;;;16.30;14.63;;;10.00;99.90;;;;;;4990303;28;20202;-69
2021/03/20 08:38:01;;;;;;;16.10;14.40;;;10.00;99.90;;;;;;4990669;28;20279;-67
2021/03/20 08:40:41;;;;;;;14.77;13.27;;;10.40;99.90;;;;;;4988717;28;20257;-64
2021/03/20 08:43:32;;;;;;;15.27;13.73;;;10.90;99.90;;;;;;4988568;28;20206;-64
2021/03/20 08:46:12;;;;;;;15.50;13.83;;;11.40;99.90;;;;;;4975154;28;20194;-68
2021/03/20 08:48:49;;;;;;;14.13;12.73;;;12.30;99.90;;;;;;4983945;28;20197;-67
2021/03/20 08:51:31;;;;;;;13.97;12.53;;;13.10;99.90;;;;;;4989145;28;20213;-64
2021/03/20 08:54:05;;;;;;;13.87;12.17;;;13.70;99.90;;;;;;4987603;28;20210;-65
2021/03/20 08:56:44;;;;;;;12.77;11.40;;;14.50;99.90;;;;;;4990503;28;20574;-65
2021/03/20 08:59:14;;;;;;;12.73;11.53;;;15.00;99.90;;;;;;4984061;28;20671;-64
2021/03/20 09:01:46;;;;;;;12.53;11.30;;;14.90;99.90;;;;;;4987501;28;20221;-68
2021/03/20 09:04:18;;;;;;;13.87;12.47;;;14.80;99.90;;;;;;4988005;28;20209;-62
2021/03/20 09:06:49;;;;;;;12.63;11.43;;;14.60;99.90;;;;;;4987064;28;20260;-68
2021/03/20 09:09:22;;;;;;;12.33;11.10;;;14.70;99.90;;;;;;4989102;28;20209;-67
2021/03/20 09:11:56;;;;;;;12.37;10.93;;;15.10;99.90;;;;;;4987906;28;20272;-66
2021/03/20 09:14:26;;;;;;;12.40;11.10;;;15.20;99.90;;;;;;4986792;28;20255;-63
2021/03/20 09:16:55;;;;;;;11.60;10.50;;;15.70;99.90;;;;;;4984891;28;20209;-66
2021/03/20 09:19:29;;;;;;;12.53;11.23;;;15.90;99.90;;;;;;4988399;28;20225;-66
2021/03/20 09:21:59;;;;;;;13.20;11.90;;;15.90;99.90;;;;;;4985108;28;20666;-67
2021/03/20 09:24:28;;;;;;;11.73;10.53;;;16.30;99.90;;;;;;4989560;28;20611;-70
2021/03/20 09:26:57;;;;;;;12.77;11.47;;;16.70;99.90;;;;;;4986472;28;20296;-65
2021/03/20 09:29:26;;;;;;;11.40;10.30;;;17.00;99.90;;;;;;4987617;28;20621;-68
2021/03/20 09:32:13;;;;;;;11.07;9.97;;;17.00;99.90;;;;;;4988401;28;20217;-66
2021/03/20 09:34:47;;;;;;;10.33;9.43;;;17.20;99.90;;;;;;4985342;28;20444;-66
2021/03/20 09:37:53;;;;;;;10.80;9.80;;;16.90;99.90;;;;;;4988230;28;20202;-66
2021/03/20 09:40:48;;;;;;;10.03;9.20;;;16.50;99.90;;;;;;4983984;28;20213;-70
2021/03/20 09:43:33;;;;;;;10.80;9.80;;;17.00;99.90;;;;;;4989777;28;20289;-71
2021/03/20 09:46:48;;;;;;;11.97;10.00;;;17.60;99.90;;;;;;4985407;28;20778;-67
2021/03/20 09:49:58;;;;;;;10.57;9.67;;;17.30;99.90;;;;;;4984645;28;20217;-71
2021/03/20 09:52:34;;;;;;;10.67;9.67;;;16.90;99.90;;;;;;4988886;28;20212;-65
2021/03/20 09:55:35;;;;;;;10.13;9.23;;;16.40;99.90;;;;;;4987569;28;20205;-66
2021/03/20 09:58:04;;;;;;;11.27;10.17;;;16.60;99.90;;;;;;4987253;28;20208;-69
2021/03/20 10:01:00;;;;;;;10.67;9.67;;;16.80;99.90;;;;;;4989772;28;20202;-68
2021/03/20 10:03:48;;;;;;;10.67;9.67;;;16.40;99.90;;;;;;4985725;28;20216;-67
2021/03/20 10:06:41;;;;;;;11.43;10.33;;;15.20;99.90;;;;;;4985378;28;20201;-68
2021/03/20 10:09:24;;;;;;;11.20;10.20;;;14.00;99.90;;;;;;4988084;28;20209;-72
2021/03/20 10:12:20;;;;;;;11.33;10.23;;;13.50;99.90;;;;;;4987285;28;20214;-67
2021/03/20 10:15:23;;;;;;;10.57;9.57;;;14.10;99.90;;;;;;4988189;28;20209;-68
2021/03/20 10:18:21;;;;;;;10.03;9.03;;;14.70;99.90;;;;;;4987717;28;20264;-74
2021/03/20 10:20:59;;;;;;;9.60;8.70;;;15.30;99.90;;;;;;4990456;28;20198;-68
2021/03/20 10:23:35;;;;;;;8.40;7.60;;;15.40;99.90;;;;;;4992639;28;20213;-69
2021/03/20 10:26:05;;;;;;;7.50;6.90;;;15.50;99.90;;;;;;4990798;28;20209;-70
2021/03/20 10:28:41;;;;;;;8.37;7.57;;;16.00;99.90;;;;;;4991157;28;20205;-69
2021/03/20 10:31:09;;;;;;;8.27;7.47;;;16.10;99.90;;;;;;4991744;28;20272;-67
2021/03/20 10:33:38;;;;;;;9.10;8.30;;;16.20;99.90;;;;;;4991809;28;20209;-67
2021/03/20 10:36:18;;;;;;;9.77;8.77;;;16.20;99.90;;;;;;4989600;28;20210;-69
2021/03/20 10:38:46;;;;;;;9.30;8.50;;;15.70;99.90;;;;;;4991409;28;20205;-67
2021/03/20 10:41:20;;;;;;;9.70;8.77;;;15.90;99.90;;;;;;4992582;28;20280;-68
2021/03/20 10:43:50;;;;;;;9.40;8.53;;;16.10;99.90;;;;;;4990025;28;20297;-68
2021/03/20 10:46:18;;;;;;;10.97;9.80;;;16.00;99.90;;;;;;4989607;28;20213;-69
2021/03/20 10:48:46;;;;;;;9.53;8.70;;;15.80;99.90;;;;;;4989751;28;20201;-68
2021/03/20 10:51:14;;;;;;;9.50;8.60;;;15.40;99.90;;;;;;4988557;28;20264;-67
2021/03/20 10:53:45;;;;;;;9.90;9.00;;;14.50;99.90;;;;;;4985742;28;20213;-69
2021/03/20 10:56:31;;;;;;;8.90;8.10;;;14.00;99.90;;;;;;4989345;28;20202;-68
2021/03/20 10:58:59;;;;;;;9.40;8.60;;;13.90;99.90;;;;;;4990134;28;20252;-67
2021/03/20 11:01:33;;;;;;;9.40;8.50;;;13.60;99.90;;;;;;4989866;28;21543;-66
2021/03/20 11:04:00;;;;;;;9.43;8.43;;;13.60;99.90;;;;;;4993748;28;20227;-65
2021/03/20 11:06:27;;;;;;;9.80;8.90;;;13.50;99.90;;;;;;4989851;28;20244;-66
2021/03/20 11:09:15;;;;;;;9.63;8.77;;;13.10;99.90;;;;;;4991643;28;20229;-66
2021/03/20 11:11:43;;;;;;;9.73;8.83;;;12.70;99.90;;;;;;4993153;28;20217;-66
2021/03/20 11:14:13;;;;;;;9.47;8.47;;;12.80;99.90;;;;;;4990972;28;20210;-66
2021/03/20 11:16:45;;;;;;;9.17;8.37;;;12.80;99.90;;;;;;4991857;28;20217;-65
2021/03/20 11:19:29;;;;;;;7.83;6.73;;;13.10;99.90;;;;;;4988887;28;20705;-66
2021/03/20 11:22:01;;;;;;;7.93;7.23;;;13.00;99.90;;;;;;4987021;28;20198;-63
2021/03/20 11:24:33;;;;;;;7.73;7.03;;;12.90;99.90;;;;;;4990849;28;20285;-64
2021/03/20 11:27:16;;;;;;;7.43;6.73;;;12.60;99.90;;;;;;4993591;28;20213;-65
2021/03/20 11:29:45;;;;;;;7.23;6.60;;;12.40;99.90;;;;;;4987883;28;20548;-63
2021/03/20 11:32:29;;;;;;;7.57;6.87;;;12.40;99.90;;;;;;4988170;28;20267;-68
2021/03/20 11:35:18;;;;;;;7.73;6.93;;;12.50;99.90;;;;;;4992173;28;20209;-68
2021/03/20 11:37:50;;;;;;;7.57;6.87;;;12.70;99.90;;;;;;4990663;28;20293;-65
2021/03/20 11:40:27;;;;;;;8.40;6.67;;;12.90;99.90;;;;;;4995941;28;20206;-67
2021/03/20 11:42:58;;;;;;;7.80;7.00;;;13.00;99.90;;;;;;4988405;28;20205;-63
2021/03/20 11:45:28;;;;;;;7.63;6.83;;;13.20;99.90;;;;;;4989525;28;20659;-65
2021/03/20 11:47:57;;;;;;;7.20;6.50;;;13.60;99.90;;;;;;4986728;28;20268;-64
2021/03/20 11:50:28;;;;;;;6.50;5.63;;;13.80;99.90;;;;;;4989635;28;20229;-66
2021/03/20 11:52:58;;;;;;;7.83;6.37;;;14.00;99.90;;;;;;4990453;28;20205;-62
2021/03/20 11:55:33;;;;;;;6.83;6.13;;;14.20;99.90;;;;;;4989831;28;20197;-62
2021/03/20 11:58:03;;;;;;;7.50;6.67;;;14.50;99.90;;;;;;4991380;28;20232;-63
2021/03/20 12:00:37;;;;;;;6.80;6.20;;;14.90;99.90;;;;;;5008355;28;20283;-67
2021/03/20 12:03:33;;;;;;;6.70;6.10;;;15.70;99.90;;;;;;4997121;28;20205;-66
2021/03/20 12:06:28;;;;;;;6.87;6.17;;;16.20;99.90;;;;;;4989150;28;20205;-64
2021/03/20 12:08:55;;;;;;;5.77;5.27;;;16.70;99.90;;;;;;4990438;28;20202;-63
2021/03/20 12:11:23;;;;;;;6.87;6.27;;;17.20;99.90;;;;;;4988978;28;20226;-67
2021/03/20 12:13:52;;;;;;;6.43;5.93;;;17.50;99.90;;;;;;4999341;28;20201;-65
2021/03/20 12:16:44;;;;;;;7.20;5.77;;;17.90;99.90;;;;;;4988101;28;20202;-65
2021/03/20 12:19:19;;;;;;;6.30;5.70;;;18.20;99.90;;;;;;4990650;28;20234;-63
2021/03/20 12:22:00;;;;;;;10.03;5.80;;;18.70;99.90;;;;;;4992535;28;20709;-63
2021/03/20 12:24:43;;;;;;;7.03;6.33;;;18.40;99.90;;;;;;4990126;28;20201;-70
2021/03/20 12:27:24;;;;;;;7.97;7.17;;;18.60;99.90;;;;;;4987832;28;20194;-65
2021/03/20 12:29:53;;;;;;;7.93;6.53;;;18.00;99.90;;;;;;4986178;28;20217;-66
2021/03/20 12:32:30;;;;;;;10.47;7.17;;;16.80;99.90;;;;;;4984830;28;20923;-67
2021/03/20 12:35:19;;;;;;;7.27;6.57;;;15.60;99.90;;;;;;4993758;28;20193;-66
2021/03/20 12:37:49;;;;;;;8.43;6.50;;;14.40;99.90;;;;;;4989663;28;20197;-66
2021/03/20 12:40:17;;;;;;;7.37;6.53;;;13.80;99.90;;;;;;4993499;28;20524;-66
2021/03/20 12:42:44;;;;;;;6.23;5.63;;;14.30;99.90;;;;;;4991595;28;20296;-66
2021/03/20 12:45:21;;;;;;;5.83;5.23;;;15.50;99.90;;;;;;5010675;28;20201;-66
2021/03/20 12:47:47;;;;;;;6.27;4.60;;;16.00;99.90;;;;;;5012725;28;20192;-66
2021/03/20 12:50:14;;;;;;;4.73;4.23;;;16.20;99.90;;;;;;5003183;28;20232;-66
2021/03/20 12:52:40;;;;;;;5.70;5.17;;;16.90;99.90;;;;;;4992563;28;20206;-66
2021/03/20 12:55:09;;;;;;;5.80;5.20;;;17.10;99.90;;;;;;5010610;28;20264;-66
2021/03/20 12:57:36;;;;;;;4.90;4.40;;;17.10;99.90;;;;;;5011970;28;20559;-67
2021/03/20 13:00:06;;;;;;;3.97;3.67;;;17.40;99.90;;;;;;5005077;28;20202;-66
2021/03/20 13:02:33;;;;;;;6.10;3.87;;;17.20;99.90;;;;;;4991135;28;20201;-67
2021/03/20 13:04:59;;;;;;;6.33;3.90;;;17.30;99.90;;;;;;5012429;28;20543;-66
2021/03/20 13:07:26;;;;;;;4.33;3.93;;;17.60;99.90;;;;;;5012249;28;20201;-66
2021/03/20 13:09:53;;;;;;;3.70;3.23;;;17.80;99.90;;;;;;5007410;28;20205;-65
2021/03/20 13:12:21;;;;;;;5.37;3.40;;;18.40;99.90;;;;;;5002869;28;20296;-66
2021/03/20 13:14:47;;;;;;;3.67;3.30;;;18.80;99.90;;;;;;5011503;28;20255;-65